Hovedside
METAR-TAF:

METAR-TAF

Lufthavner :

Majuro, Marshalløyene

breddegrad: 07-04N, lengdegrad: 171-17E, høyde over havet: 2 m

Gjeldene værobservasjon

Denne rapporten ble laget for 8 timer og 51 minutter siden, klokken 08:52 UTC
Vind 10 kt fra Sør-sørøst
Temperatur 27°C
Luftfuktighet 89%
Trykk 1010 hPa
Sikt: 16.1 km
Spredte skyer i en høyde av 1400 ft, Tårnskyer (cumulus).
Brutte skyer i en høyde av 4500 ft
Overskyet i en høyde av 11000 ft
lette regnbyger

METAR: PKMJ 230852Z 16010KT 10SM -SHRA SCT014TCU BKN045 OVC110 27/25 A2983 RMK TCU ALQDS LAST

Tid: 05:43 (17:43 UTC)

Varsel

Denne rapporten ble laget for 12 minutter siden, klokken 17:31 UTC
Varsel gyldig fra 23. klokken 18 UTC til 24. klokken 18 UTC
Vind 8 kt fra Øst
Sikt: 10 km
Spredte skyer i en høyde av 1400 ft
Spredte skyer i en høyde av 4500 ft
Brutte skyer i en høyde av 11000 ft
regnbyger i nærheten

TAF: PKMJ 231731Z 2318/2418 10008KT P6SM VCSH SCT014 SCT045 BKN110

Værobservasjoner og værvarsel for over 4000 flyplasser (METAR- og TAF-rapporter).

Tilgjengelige stasjoner er representert av de røde og gule prikkene på kartet.

Hold musepekeren over prikken for å se navnet på stasjonen.

Klikk så for å se værobservasjoner og -varsler.

For å forandre kartet kan du klikke på den grønne knappen med svart kryss for å zoome inn, på den grønne knappen med strek for å zoome ut, eller på de grønne pilene for å se tilstøtende kart.


METAR-TAF: